Time;durP1;ratioP1;P1;durP2;ratioP2;P2;SDS_P1;SDS_P2;PMS_P1;PMS_P2;Temp;Humidity;BMP_temperature;BMP_pressure;BME280_temperature;BME280_humidity;BME280_pressure;Samples;Min_cycle;Max_cycle;Signal;HPM_P1;HPM_P2
2023/08/21 00:03:35;;;;;;;;;;;26.60;47.70;;;26.09;46.55;101806.31;12141599;19;20213;-86
2023/08/21 00:07:37;;;;;;;;;;;26.60;47.70;;;26.07;46.10;101802.94;12137396;19;19927;-86
2023/08/21 00:11:38;;;;;;;;;;;26.50;47.70;;;26.06;46.67;101798.59;12143485;19;20382;-86
2023/08/21 00:15:39;;;;;;;;;;;26.50;47.80;;;26.07;46.42;101810.13;12135399;19;19939;-87
2023/08/21 00:19:41;;;;;;;;;;;26.50;47.80;;;25.97;46.61;101792.34;12143357;19;20631;-86
2023/08/21 00:23:42;;;;;;;;;;;26.40;47.70;;;25.97;46.28;101802.22;12141427;19;19954;-87
2023/08/21 00:27:44;;;;;;;;;;;26.40;47.80;;;25.94;46.21;101799.88;12136770;19;20021;-87
2023/08/21 00:31:46;;;;;;;;;;;26.40;47.80;;;25.93;46.76;101793.69;12139447;19;19943;-87
2023/08/21 00:35:47;;;;;;;;;;;26.30;48.00;;;25.86;46.34;101792.63;12137747;19;20021;-87
2023/08/21 00:39:49;;;;;;;;;;;26.30;47.90;;;25.89;46.86;101804.84;12137274;19;19923;-87
2023/08/21 00:43:50;;;;;;;;;;;26.30;47.90;;;25.87;46.48;101812.19;12138582;19;20309;-87
2023/08/21 00:47:53;;;;;;;;;;;26.30;48.00;;;25.83;46.57;101814.31;12137676;19;20283;-87
2023/08/21 00:51:54;;;;;;;;;;;26.20;47.90;;;25.78;46.67;101800.56;12139165;19;19922;-86
2023/08/21 00:55:56;;;;;;;;;;;26.20;48.00;;;25.80;46.47;101806.63;12137852;19;19944;-87
2023/08/21 01:00:00;;;;;;;;;;;26.20;48.10;;;25.75;46.54;101800.91;12141060;19;19934;-86
2023/08/21 01:04:02;;;;;;;;;;;26.20;48.00;;;25.72;46.80;101806.56;12136868;19;19927;-87
2023/08/21 01:08:06;;;;;;;;;;;26.20;48.10;;;25.69;46.76;101813.06;12138040;19;19923;-86
2023/08/21 01:12:48;;;;;;;;;;;26.10;48.00;;;25.64;46.83;101811.88;12139058;19;19994;-87
2023/08/21 01:16:54;;;;;;;;;;;26.10;48.00;;;25.55;46.88;101809.13;12137782;19;19923;-87
2023/08/21 01:20:56;;;;;;;;;;;26.00;48.00;;;25.51;46.84;101805.06;12135219;19;20378;-86
2023/08/21 01:24:57;;;;;;;;;;;26.00;48.00;;;25.49;46.89;101804.41;12134716;19;19919;-87
2023/08/21 01:28:59;;;;;;;;;;;25.90;48.10;;;25.40;47.19;101789.28;12136690;19;19919;-87
2023/08/21 01:33:13;;;;;;;;;;;25.90;48.10;;;25.43;47.32;101807.69;12137702;19;19919;-86
2023/08/21 01:37:15;;;;;;;;;;;25.90;48.20;;;25.34;47.06;101792.59;12140084;19;19926;-86
2023/08/21 01:41:16;;;;;;;;;;;25.90;48.20;;;25.35;47.25;101808.47;12146847;19;20299;-87
2023/08/21 01:45:18;;;;;;;;;;;25.80;48.20;;;25.30;46.96;101796.56;12143755;19;20524;-86
2023/08/21 01:49:20;;;;;;;;;;;25.80;48.30;;;25.28;47.26;101793.22;12147273;19;19933;-86
2023/08/21 01:53:21;;;;;;;;;;;25.70;48.20;;;25.24;47.21;101786.50;12143101;19;19927;-87
2023/08/21 01:57:23;;;;;;;;;;;25.70;48.30;;;25.20;46.94;101782.47;12141484;19;20495;-86
2023/08/21 02:01:24;;;;;;;;;;;25.70;48.40;;;24.95;47.32;101750.97;12146704;19;19919;-86
2023/08/21 02:05:26;;;;;;;;;;;25.70;48.40;;;25.18;47.71;101798.66;12145225;19;19923;-86
2023/08/21 02:09:27;;;;;;;;;;;25.70;48.40;;;25.15;47.17;101794.44;12144713;19;20547;-86
2023/08/21 02:13:29;;;;;;;;;;;25.60;48.50;;;25.08;47.20;101768.44;12143074;19;19926;-86
2023/08/21 02:17:30;;;;;;;;;;;25.60;48.50;;;25.12;47.16;101784.03;12140263;19;19957;-86
2023/08/21 02:21:34;;;;;;;;;;;25.60;48.60;;;25.07;47.26;101777.47;12143838;19;19923;-86
2023/08/21 02:25:35;;;;;;;;;;;25.60;48.60;;;25.05;47.65;101774.09;12141379;19;20777;-87
2023/08/21 02:29:37;;;;;;;;;;;25.60;48.70;;;25.08;47.41;101787.16;12145100;19;19923;-87
2023/08/21 02:33:38;;;;;;;;;;;25.60;48.70;;;24.89;47.83;101756.09;12145633;19;20228;-87
2023/08/21 02:37:40;;;;;;;;;;;25.50;48.70;;;24.93;47.34;101757.47;12140967;19;19937;-87
2023/08/21 02:41:41;;;;;;;;;;;25.50;49.10;;;24.97;47.86;101763.34;12145450;19;19936;-87
2023/08/21 02:45:43;;;;;;;;;;;25.50;48.80;;;24.94;47.94;101767.16;12141153;19;20284;-86
2023/08/21 02:49:44;;;;;;;;;;;25.50;48.90;;;24.91;47.76;101768.31;12143979;19;19923;-86
2023/08/21 02:53:47;;;;;;;;;;;25.50;48.90;;;24.90;47.94;101765.81;12143645;19;20031;-86
2023/08/21 02:57:49;;;;;;;;;;;25.50;49.00;;;24.93;48.01;101758.31;12139280;19;19918;-86
2023/08/21 03:01:50;;;;;;;;;;;25.50;49.10;;;24.83;47.92;101743.34;12146536;19;19923;-86
2023/08/21 03:05:52;;;;;;;;;;;25.50;49.40;;;24.91;48.16;101760.28;12143854;19;20282;-86
2023/08/21 03:09:54;;;;;;;;;;;25.50;49.20;;;24.90;48.16;101752.44;12146542;19;20198;-87
2023/08/21 03:13:55;;;;;;;;;;;25.50;49.20;;;24.96;48.08;101767.84;12139883;19;19922;-87
2023/08/21 03:17:57;;;;;;;;;;;25.50;49.30;;;24.84;48.29;101753.03;12139485;19;20299;-87
2023/08/21 03:21:59;;;;;;;;;;;25.50;49.30;;;24.95;48.42;101760.81;12143088;19;19918;-87
2023/08/21 03:26:01;;;;;;;;;;;25.50;49.30;;;24.93;47.98;101763.66;12139510;19;19931;-87
2023/08/21 03:30:04;;;;;;;;;;;25.50;49.40;;;24.94;48.39;101769.84;12142744;19;20340;-88
2023/08/21 03:34:06;;;;;;;;;;;25.50;49.50;;;24.96;48.55;101767.84;12140059;19;19918;-88
2023/08/21 03:38:08;;;;;;;;;;;25.50;49.40;;;24.97;48.45;101769.53;12141986;19;19937;-88
2023/08/21 03:42:18;;;;;;;;;;;25.50;49.40;;;24.97;48.05;101769.53;12140623;19;20628;-88
2023/08/21 03:46:20;;;;;;;;;;;25.50;49.50;;;24.90;48.21;101763.13;12138194;19;20293;-88
2023/08/21 03:50:22;;;;;;;;;;;25.50;49.50;;;24.94;48.18;101769.84;12139889;19;20012;-89
2023/08/21 03:54:24;;;;;;;;;;;25.50;49.40;;;24.92;48.51;101759.31;12137933;19;19930;-88
2023/08/21 03:58:26;;;;;;;;;;;25.50;49.50;;;24.97;48.24;101774.88;12131793;19;20369;-88
2023/08/21 04:02:27;;;;;;;;;;;25.50;49.50;;;24.86;48.54;101756.41;12139023;19;20412;-88
2023/08/21 04:06:29;;;;;;;;;;;25.50;49.50;;;24.98;48.47;101781.91;12139064;19;19918;-88
2023/08/21 04:10:30;;;;;;;;;;;25.60;49.60;;;24.98;48.63;101779.25;12136287;19;20927;-88
2023/08/21 04:14:32;;;;;;;;;;;25.60;49.70;;;24.97;48.54;101782.88;12132990;19;20681;-88
2023/08/21 04:18:36;;;;;;;;;;;25.50;49.70;;;24.93;48.56;101787.72;12137406;19;19927;-88
2023/08/21 04:22:38;;;;;;;;;;;25.50;49.80;;;24.92;48.63;101791.38;12135157;19;20447;-88
2023/08/21 04:26:40;;;;;;;;;;;25.50;49.70;;;24.86;48.96;101789.28;12137120;19;20272;-88
2023/08/21 04:30:42;;;;;;;;;;;25.50;49.80;;;24.92;48.73;101798.53;12138300;19;19927;-89
2023/08/21 04:34:44;;;;;;;;;;;25.50;49.80;;;24.75;48.92;101780.69;12131236;19;20558;-88
2023/08/21 04:38:46;;;;;;;;;;;25.50;49.80;;;24.90;49.03;101806.72;12140494;19;19922;-88
2023/08/21 04:42:47;;;;;;;;;;;25.50;49.90;;;24.89;49.17;101809.53;12139423;19;20601;-88
2023/08/21 04:46:52;;;;;;;;;;;25.50;49.90;;;24.94;48.58;101801.91;12136404;19;19927;-89
2023/08/21 04:50:54;;;;;;;;;;;25.50;50.10;;;24.79;49.08;101784.72;12138525;19;20197;-88
2023/08/21 04:54:56;;;;;;;;;;;25.50;50.00;;;24.88;48.87;101807.88;12135816;19;19919;-88
2023/08/21 04:58:58;;;;;;;;;;;25.50;50.00;;;24.91;49.00;101815.56;12139278;19;20194;-89
2023/08/21 05:03:02;;;;;;;;;;;25.50;50.00;;;24.83;48.76;101799.47;12137267;19;20022;-89
2023/08/21 05:07:05;;;;;;;;;;;25.50;50.40;;;24.83;49.19;101789.59;12134358;19;19911;-88
2023/08/21 05:11:06;;;;;;;;;;;25.50;50.30;;;24.85;49.26;101802.81;12149757;19;19933;-88
2023/08/21 05:15:11;;;;;;;;;;;25.50;50.20;;;24.90;49.35;101816.56;12145212;19;20402;-88
2023/08/21 05:19:12;;;;;;;;;;;25.50;50.40;;;24.93;49.32;101818.94;12149376;19;20738;-88
2023/08/21 05:23:14;;;;;;;;;;;25.50;50.40;;;24.91;49.28;101820.91;12149103;19;20641;-88
2023/08/21 05:27:18;;;;;;;;;;;25.50;50.50;;;24.68;49.25;101775.09;12143790;19;20895;-88
2023/08/21 05:31:19;;;;;;;;;;;25.50;50.50;;;24.87;49.44;101814.19;12154564;19;19915;-86
2023/08/21 05:35:26;;;;;;;;;;;25.50;50.40;;;24.96;49.08;101832.00;12154359;19;20766;-88
2023/08/21 05:39:29;;;;;;;;;;;25.60;50.60;;;25.03;49.35;101833.03;12153477;19;20758;-87
2023/08/21 05:43:31;;;;;;;;;;;25.60;50.50;;;25.01;49.41;101829.72;12157547;19;20204;-86
2023/08/21 05:47:33;;;;;;;;;;;25.70;50.60;;;25.09;49.67;101840.47;12149889;19;19929;-86
2023/08/21 05:51:35;;;;;;;;;;;25.70;50.60;;;25.15;49.45;101839.88;12156138;19;19960;-85
2023/08/21 05:55:37;;;;;;;;;;;25.80;50.70;;;25.17;49.71;101840.59;12152009;19;20447;-85
2023/08/21 05:59:44;;;;;;;;;;;25.80;50.60;;;25.24;49.61;101850.66;12156114;19;19933;-85
2023/08/21 06:03:46;;;;;;;;;;;25.90;50.70;;;25.26;49.42;101846.00;12156183;19;19933;-85
2023/08/21 06:08:08;;;;;;;;;;;25.90;50.60;;;25.23;49.31;101832.94;12157143;19;20010;-85
2023/08/21 06:12:10;;;;;;;;;;;26.00;50.80;;;25.39;49.93;101843.78;12154881;19;19944;-85
2023/08/21 06:16:12;;;;;;;;;;;26.00;50.70;;;25.45;49.64;101847.66;12152164;19;19923;-86
2023/08/21 06:20:15;;;;;;;;;;;26.10;51.10;;;25.55;49.78;101854.63;12149592;19;19915;-85
2023/08/21 06:24:16;;;;;;;;;;;26.20;50.70;;;25.57;49.43;101839.25;12150074;19;19918;-86
2023/08/21 06:28:18;;;;;;;;;;;26.30;50.90;;;25.62;49.75;101838.75;12152714;19;19922;-86
2023/08/21 06:32:20;;;;;;;;;;;26.40;50.80;;;25.76;49.82;101851.59;12159270;19;20010;-86
2023/08/21 06:36:22;;;;;;;;;;;26.40;50.70;;;25.73;49.82;101841.19;12154009;19;19919;-86
2023/08/21 06:40:24;;;;;;;;;;;26.50;50.80;;;25.86;49.92;101853.34;12156562;19;19919;-86
2023/08/21 06:44:25;;;;;;;;;;;26.60;50.70;;;25.93;49.81;101852.56;12159864;19;19933;-86
2023/08/21 06:48:27;;;;;;;;;;;26.60;50.80;;;25.93;50.01;101835.66;12157083;19;20304;-86
2023/08/21 06:52:28;;;;;;;;;;;26.70;51.40;;;25.75;49.77;101817.78;12162708;19;20737;-86
2023/08/21 06:56:30;;;;;;;;;;;26.80;50.90;;;25.98;49.98;101844.91;12155059;19;20002;-86
2023/08/21 07:00:32;;;;;;;;;;;26.80;50.70;;;26.11;49.94;101859.69;12161467;19;19939;-86
2023/08/21 07:04:34;;;;;;;;;;;26.80;50.70;;;26.16;49.85;101855.53;12158708;19;19919;-86
2023/08/21 07:08:37;;;;;;;;;;;26.90;51.30;;;26.23;49.70;101853.06;12166727;19;21142;-85
2023/08/21 07:12:38;;;;;;;;;;;27.00;51.20;;;26.23;49.88;101847.69;12162910;19;20880;-85
2023/08/21 07:16:40;;;;;;;;;;;27.00;50.80;;;26.31;49.94;101857.63;12160839;19;19933;-85
2023/08/21 07:20:41;;;;;;;;;;;27.10;50.80;;;26.27;49.83;101843.69;12152676;19;20748;-85
2023/08/21 07:24:43;;;;;;;;;;;27.10;50.70;;;26.32;49.91;101849.41;12151429;19;19919;-85
2023/08/21 07:28:45;;;;;;;;;;;27.20;50.60;;;26.47;50.01;101860.38;12149896;19;20169;-86
2023/08/21 07:32:47;;;;;;;;;;;27.20;50.90;;;26.35;50.29;101824.97;12148366;19;20224;-86
2023/08/21 07:36:48;;;;;;;;;;;27.30;50.80;;;26.63;50.11;101843.53;12145249;19;19923;-85
2023/08/21 07:40:50;;;;;;;;;;;27.40;50.80;;;26.83;49.94;101865.53;12151490;19;20371;-86
2023/08/21 07:44:51;;;;;;;;;;;27.50;50.80;;;26.85;50.06;101853.66;12151512;19;20916;-86
2023/08/21 07:48:54;;;;;;;;;;;27.70;50.90;;;26.83;50.02;101831.50;12148178;19;20903;-86
2023/08/21 07:52:55;;;;;;;;;;;27.80;50.90;;;27.11;50.09;101871.44;12150415;19;20459;-86
2023/08/21 07:56:57;;;;;;;;;;;27.90;50.90;;;27.15;49.94;101854.03;12143622;19;19923;-86
2023/08/21 08:01:01;;;;;;;;;;;28.00;50.90;;;27.38;50.19;101864.13;12145464;19;19930;-86
2023/08/21 08:05:02;;;;;;;;;;;28.20;51.00;;;27.45;50.38;101860.59;12148289;19;20235;-85
2023/08/21 08:09:04;;;;;;;;;;;28.30;50.90;;;27.57;50.07;101861.94;12147353;19;19946;-85
2023/08/21 08:13:06;;;;;;;;;;;28.40;50.80;;;27.64;49.76;101854.06;12148500;19;20688;-85
2023/08/21 08:17:08;;;;;;;;;;;28.50;50.70;;;27.79;49.92;101868.47;12145964;19;19929;-85
2023/08/21 08:21:10;;;;;;;;;;;28.60;50.60;;;27.84;50.16;101857.25;12149092;19;20276;-85
2023/08/21 08:25:11;;;;;;;;;;;28.70;50.50;;;27.95;50.12;101872.13;12144466;19;19990;-85
2023/08/21 08:29:13;;;;;;;;;;;28.80;50.50;;;28.06;50.47;101868.25;12146360;19;19926;-85
2023/08/21 08:33:15;;;;;;;;;;;28.90;50.50;;;28.10;50.27;101861.53;12144722;19;20200;-86
2023/08/21 08:37:16;;;;;;;;;;;29.00;50.40;;;28.15;50.07;101867.25;12145957;19;19946;-85
2023/08/21 08:41:38;;;;;;;;;;;29.00;50.20;;;28.21;50.02;101871.91;12145545;19;20912;-86
2023/08/21 08:45:41;;;;;;;;;;;29.00;49.70;;;28.23;50.07;101872.59;12143000;19;19927;-85
2023/08/21 08:49:43;;;;;;;;;;;29.10;49.90;;;28.22;50.06;101863.69;12147093;19;20005;-85
2023/08/21 08:53:44;;;;;;;;;;;29.10;49.90;;;28.32;50.17;101865.34;12143560;19;19930;-85
2023/08/21 08:57:46;;;;;;;;;;;29.20;49.80;;;28.30;49.58;101864.66;12141356;19;20644;-85
2023/08/21 09:01:48;;;;;;;;;;;29.20;49.60;;;28.31;49.50;101860.97;12142165;19;20462;-86
2023/08/21 09:05:50;;;;;;;;;;;29.20;49.50;;;28.36;49.88;101872.06;12146806;19;19915;-85
2023/08/21 09:09:52;;;;;;;;;;;29.20;49.30;;;28.36;49.76;101877.41;12142975;19;19927;-85
2023/08/21 09:13:55;;;;;;;;;;;29.20;49.10;;;28.43;49.36;101879.25;12144305;19;20022;-85
2023/08/21 09:17:56;;;;;;;;;;;29.30;49.30;;;28.46;49.43;101880.75;12142679;19;20185;-85
2023/08/21 09:21:58;;;;;;;;;;;29.30;48.80;;;28.44;49.47;101867.50;12145516;19;19931;-85
2023/08/21 09:26:01;;;;;;;;;;;29.40;48.80;;;28.55;49.38;101879.72;12143208;19;20746;-85
2023/08/21 09:30:09;;;;;;;;;;;29.40;48.70;;;28.62;49.35;101885.22;12141537;19;19923;-85
2023/08/21 09:34:11;;;;;;;;;;;29.40;48.60;;;28.71;49.63;101877.97;12139901;19;21032;-85
2023/08/21 09:38:14;;;;;;;;;;;29.50;48.30;;;28.78;49.00;101878.91;12139371;19;20771;-85
2023/08/21 09:42:17;;;;;;;;;;;29.60;47.90;;;28.81;49.49;101865.13;12140946;19;20791;-86
2023/08/21 09:46:26;;;;;;;;;;;29.70;47.50;;;28.94;49.20;101873.44;12138302;19;19955;-86
2023/08/21 09:50:29;;;;;;;;;;;29.70;47.90;;;28.99;49.31;101865.69;12142711;19;19931;-85
2023/08/21 09:54:32;;;;;;;;;;;29.90;47.60;;;29.15;49.24;101877.38;12137243;19;20275;-85
2023/08/21 09:58:36;;;;;;;;;;;29.90;46.70;;;29.16;49.44;101865.59;12152649;19;20013;-85
2023/08/21 10:02:38;;;;;;;;;;;30.10;46.90;;;29.26;48.99;101866.19;12153906;19;19919;-85
2023/08/21 10:06:40;;;;;;;;;;;30.10;46.60;;;29.14;48.66;101835.34;12150129;19;20756;-85
2023/08/21 10:10:42;;;;;;;;;;;30.20;44.80;;;29.33;48.73;101856.41;12154438;19;19937;-86
2023/08/21 10:14:43;;;;;;;;;;;30.30;46.70;;;29.43;48.75;101853.44;12148060;19;20467;-86
2023/08/21 10:18:48;;;;;;;;;;;30.30;45.60;;;29.57;48.35;101868.81;12149460;19;20728;-85
2023/08/21 10:22:54;;;;;;;;;;;30.40;46.80;;;29.65;48.37;101863.38;12149515;19;19923;-85
2023/08/21 10:26:59;;;;;;;;;;;30.50;45.10;;;29.71;48.18;101856.41;12147416;19;20734;-86
2023/08/21 10:31:32;;;;;;;;;;;30.60;46.40;;;29.87;48.24;101866.19;12149173;19;19918;-86
2023/08/21 10:35:35;;;;;;;;;;;30.70;46.00;;;29.88;48.34;101844.44;12147668;19;20459;-84
2023/08/21 10:39:37;;;;;;;;;;;30.80;46.30;;;30.06;48.26;101856.72;12147747;19;19923;-85
2023/08/21 10:43:44;;;;;;;;;;;30.90;46.50;;;30.18;48.32;101858.75;12148413;19;20171;-86
2023/08/21 10:47:48;;;;;;;;;;;31.00;46.30;;;30.25;47.86;101850.81;12146448;19;20748;-86
2023/08/21 10:51:50;;;;;;;;;;;31.10;44.40;;;30.35;47.85;101856.75;12150566;19;20519;-85
2023/08/21 10:55:55;;;;;;;;;;;31.30;42.70;;;30.45;47.88;101861.00;12142078;19;20732;-84
2023/08/21 11:00:12;;;;;;;;;;;31.30;45.10;;;30.51;47.84;101873.72;12145155;19;20287;-84
2023/08/21 11:04:14;;;;;;;;;;;31.30;43.10;;;30.50;47.26;101874.75;12142556;19;20713;-83
2023/08/21 11:08:17;;;;;;;;;;;31.40;43.60;;;30.50;47.39;101877.44;12143182;19;20612;-83
2023/08/21 11:12:21;;;;;;;;;;;31.30;45.20;;;30.50;47.17;101878.28;12147455;19;20291;-83
2023/08/21 11:16:24;;;;;;;;;;;31.30;44.80;;;30.49;46.93;101867.66;12142587;19;20692;-84
2023/08/21 11:20:33;;;;;;;;;;;31.30;44.80;;;30.45;46.98;101863.69;12146789;19;19922;-83
2023/08/21 11:24:39;;;;;;;;;;;31.30;43.40;;;30.51;47.01;101868.31;12146247;19;19925;-83
2023/08/21 11:28:41;;;;;;;;;;;31.30;43.40;;;30.54;46.70;101852.63;12144473;19;19922;-88
2023/08/21 11:32:43;;;;;;;;;;;31.40;44.50;;;30.58;46.50;101855.75;12142482;19;19931;-87
2023/08/21 11:36:45;;;;;;;;;;;31.50;44.70;;;30.72;46.53;101854.88;12139792;19;20642;-88
2023/08/21 11:41:05;;;;;;;;;;;31.50;43.30;;;30.84;46.40;101861.50;12142117;19;19918;-87
2023/08/21 11:45:10;;;;;;;;;;;31.60;44.70;;;30.86;46.25;101859.41;12141750;19;20218;-88
2023/08/21 11:49:11;;;;;;;;;;;31.70;44.20;;;30.96;46.26;101864.50;12140761;19;20779;-88
2023/08/21 11:53:13;;;;;;;;;;;31.80;44.30;;;31.02;46.38;101854.81;12141239;19;19947;-87
2023/08/21 11:57:15;;;;;;;;;;;31.90;43.20;;;30.92;46.17;101838.09;12140723;19;20184;-87
2023/08/21 12:01:18;;;;;;;;;;;31.80;42.90;;;31.03;46.09;101851.09;12142885;19;19919;-89
2023/08/21 12:05:19;;;;;;;;;;;31.90;43.60;;;31.13;46.17;101854.28;12135153;19;19930;-88
2023/08/21 12:09:21;;;;;;;;;;;31.90;43.50;;;31.16;45.77;101862.00;12137527;19;19998;-88
2023/08/21 12:13:26;;;;;;;;;;;31.90;41.80;;;31.11;45.54;101842.88;12132348;19;20881;-88
2023/08/21 12:17:28;;;;;;;;;;;32.00;44.20;;;30.90;45.47;101810.50;12135241;19;19923;-89
2023/08/21 12:21:29;;;;;;;;;;;31.90;43.60;;;31.00;45.44;101829.88;12136132;19;19923;-90
2023/08/21 12:25:31;;;;;;;;;;;31.90;44.20;;;31.15;45.69;101840.63;12131860;19;20288;-88
2023/08/21 12:29:34;;;;;;;;;;;32.00;43.70;;;31.30;45.58;101855.72;12133956;19;20784;-88
2023/08/21 12:33:35;;;;;;;;;;;32.00;43.50;;;31.25;45.36;101844.66;12134202;19;19925;-88
2023/08/21 12:37:37;;;;;;;;;;;32.00;43.10;;;31.35;45.44;101855.09;12137118;19;19919;-88
2023/08/21 12:41:38;;;;;;;;;;;32.10;43.70;;;31.35;44.94;101852.41;12137092;19;19933;-87
2023/08/21 12:45:40;;;;;;;;;;;32.10;44.00;;;31.33;45.07;101838.28;12140392;19;20259;-88
2023/08/21 12:49:42;;;;;;;;;;;32.10;43.10;;;31.38;44.79;101846.66;12139151;19;20304;-87
2023/08/21 12:53:43;;;;;;;;;;;32.10;42.00;;;31.39;44.87;101842.09;12137063;19;19915;-88
2023/08/21 12:57:45;;;;;;;;;;;32.10;42.80;;;31.41;44.92;101846.28;12135779;19;19943;-88
2023/08/21 13:01:46;;;;;;;;;;;32.10;42.10;;;31.43;44.50;101843.38;12138754;19;20045;-88
2023/08/21 13:05:48;;;;;;;;;;;32.10;43.20;;;31.41;44.83;101838.19;12140599;19;20316;-88
2023/08/21 13:09:50;;;;;;;;;;;32.10;43.20;;;31.46;44.45;101845.66;12140947;19;19983;-87
2023/08/21 13:13:51;;;;;;;;;;;32.10;43.50;;;31.47;44.35;101844.66;12137715;19;19943;-87
2023/08/21 13:17:53;;;;;;;;;;;32.10;43.40;;;31.43;44.50;101838.81;12131030;19;19922;-86
2023/08/21 13:21:55;;;;;;;;;;;32.20;42.30;;;31.48;44.20;101843.63;12136017;19;19922;-88
2023/08/21 13:25:57;;;;;;;;;;;32.20;42.80;;;31.47;44.34;101837.38;12134634;19;19923;-87
2023/08/21 13:29:59;;;;;;;;;;;32.30;42.80;;;31.59;44.01;101836.84;12139301;19;19929;-87
2023/08/21 13:34:01;;;;;;;;;;;32.30;43.40;;;31.63;44.36;101847.06;12148407;19;20186;-90
2023/08/21 13:38:03;;;;;;;;;;;32.30;42.60;;;31.61;44.19;101841.00;12148523;19;19923;-87
2023/08/21 13:42:05;;;;;;;;;;;32.30;42.30;;;31.58;43.76;101851.38;12143858;19;19961;-83
2023/08/21 13:46:07;;;;;;;;;;;32.30;43.10;;;31.60;43.73;101847.47;12144953;19;19923;-83
2023/08/21 13:50:10;;;;;;;;;;;32.20;42.90;;;31.40;43.69;101805.97;12135064;19;19926;-84
2023/08/21 13:54:12;;;;;;;;;;;32.20;43.10;;;31.64;43.83;101834.38;12132653;19;20745;-83
2023/08/21 13:58:13;;;;;;;;;;;32.30;42.80;;;31.65;43.93;101820.69;12142473;19;19926;-84
2023/08/21 14:02:15;;;;;;;;;;;32.30;42.30;;;31.50;43.44;101793.78;12141279;19;20299;-83
2023/08/21 14:06:18;;;;;;;;;;;32.30;41.60;;;31.64;43.58;101807.38;12137642;19;20177;-83
2023/08/21 14:10:19;;;;;;;;;;;32.30;42.20;;;31.65;43.24;101809.91;12142332;19;20746;-84
2023/08/21 14:14:21;;;;;;;;;;;32.40;42.20;;;31.69;43.40;101821.94;12140110;19;20410;-84
2023/08/21 14:18:22;;;;;;;;;;;32.30;42.10;;;31.70;43.27;101820.94;12138007;19;20241;-84
2023/08/21 14:22:23;;;;;;;;;;;32.30;42.10;;;31.66;43.39;101811.56;12145783;19;19927;-84
2023/08/21 14:26:25;;;;;;;;;;;32.30;42.30;;;31.60;43.15;101798.03;12140940;19;19926;-83
2023/08/21 14:30:26;;;;;;;;;;;32.30;41.60;;;31.55;42.88;101801.31;12139154;19;19926;-84
2023/08/21 14:34:27;;;;;;;;;;;32.30;41.10;;;31.59;42.94;101805.25;12142682;19;19919;-83
2023/08/21 14:38:30;;;;;;;;;;;32.20;42.10;;;31.62;42.71;101813.00;12142197;19;19931;-83
2023/08/21 14:42:31;;;;;;;;;;;32.20;42.30;;;31.42;42.88;101779.59;12140779;19;19927;-83
2023/08/21 14:46:33;;;;;;;;;;;32.20;41.40;;;31.53;42.97;101793.38;12139092;19;20732;-83
2023/08/21 14:50:34;;;;;;;;;;;32.20;41.50;;;31.56;42.58;101799.44;12140789;19;20311;-84
2023/08/21 14:54:36;;;;;;;;;;;32.20;42.10;;;31.62;42.84;101804.91;12139507;19;20645;-84
2023/08/21 14:58:37;;;;;;;;;;;32.10;41.60;;;31.58;42.48;101791.97;12141181;19;19927;-85
2023/08/21 15:02:38;;;;;;;;;;;32.20;41.50;;;31.63;42.37;101811.94;12139775;19;19961;-84
2023/08/21 15:06:40;;;;;;;;;;;32.20;41.90;;;31.59;42.74;101797.16;12136532;19;19951;-84
2023/08/21 15:10:41;;;;;;;;;;;32.10;41.90;;;31.63;42.44;101805.72;12140271;19;20192;-84
2023/08/21 15:14:42;;;;;;;;;;;32.20;41.80;;;31.59;42.50;101790.94;12140003;19;19923;-83
2023/08/21 15:18:46;;;;;;;;;;;32.10;41.20;;;31.60;42.51;101779.94;12143156;19;19929;-85
2023/08/21 15:22:50;;;;;;;;;;;32.10;41.80;;;31.69;42.11;101794.94;12127029;19;19922;-84
2023/08/21 15:26:51;;;;;;;;;;;32.20;41.90;;;31.69;42.20;101794.94;12127348;19;19923;-83
2023/08/21 15:30:53;;;;;;;;;;;32.20;41.80;;;31.64;42.32;101807.38;12133221;19;19923;-84
2023/08/21 15:34:54;;;;;;;;;;;32.10;41.60;;;31.55;41.95;101795.91;12139913;19;19951;-82
2023/08/21 15:38:55;;;;;;;;;;;32.10;41.50;;;31.53;41.95;101804.19;12137965;19;19926;-84
2023/08/21 15:43:01;;;;;;;;;;;32.10;41.90;;;31.47;41.93;101801.44;12138396;19;19966;-84
2023/08/21 15:47:03;;;;;;;;;;;32.00;41.60;;;31.41;42.04;101775.25;12124606;19;19988;-83
2023/08/21 15:51:04;;;;;;;;;;;31.90;41.70;;;31.35;41.85;101768.72;12124920;19;19919;-82
2023/08/21 15:55:05;;;;;;;;;;;31.90;41.60;;;31.36;41.57;101774.97;12125930;19;19927;-83
2023/08/21 15:59:07;;;;;;;;;;;31.80;41.20;;;31.25;41.68;101766.38;12125640;19;19930;-83
2023/08/21 16:03:08;;;;;;;;;;;31.80;41.00;;;31.26;41.57;101775.31;12124565;19;20455;-83
2023/08/21 16:07:10;;;;;;;;;;;31.80;41.20;;;31.22;41.85;101760.53;12116464;19;19934;-83
2023/08/21 16:11:11;;;;;;;;;;;31.80;41.40;;;31.25;41.50;101771.78;12121947;19;19930;-83
2023/08/21 16:15:12;;;;;;;;;;;31.80;41.50;;;31.22;41.35;101768.63;12122253;19;20768;-83
2023/08/21 16:19:14;;;;;;;;;;;31.70;40.90;;;31.17;41.64;101763.81;12122379;19;19919;-83
2023/08/21 16:23:15;;;;;;;;;;;31.70;41.10;;;31.07;41.14;101758.75;12121733;19;20294;-84
2023/08/21 16:27:17;;;;;;;;;;;31.60;41.20;;;31.07;41.54;101757.91;12119347;19;21209;-82
2023/08/21 16:31:18;;;;;;;;;;;31.50;41.20;;;31.06;41.26;101767.88;12123896;19;19926;-83
2023/08/21 16:35:19;;;;;;;;;;;31.50;41.20;;;31.06;41.49;101767.88;12113183;19;20668;-83
2023/08/21 16:39:21;;;;;;;;;;;31.50;41.10;;;31.03;41.39;101762.06;12118411;19;19935;-83
2023/08/21 16:43:23;;;;;;;;;;;31.50;41.20;;;31.01;41.28;101762.22;12120446;19;19918;-83
2023/08/21 16:47:24;;;;;;;;;;;31.40;41.60;;;30.97;41.12;101757.41;12114381;19;19914;-83
2023/08/21 16:51:25;;;;;;;;;;;31.40;41.20;;;30.80;41.01;101733.41;12116089;19;19925;-82
2023/08/21 16:55:27;;;;;;;;;;;31.40;41.60;;;30.88;40.76;101759.41;12114929;19;20946;-83
2023/08/21 16:59:28;;;;;;;;;;;31.30;41.00;;;30.82;41.03;101755.63;12120137;19;20748;-83
2023/08/21 17:03:29;;;;;;;;;;;31.30;40.90;;;30.77;41.05;101754.53;12120973;19;19926;-84
2023/08/21 17:07:37;;;;;;;;;;;31.20;41.00;;;30.67;41.16;101748.59;12130283;19;20509;-83
2023/08/21 17:11:57;;;;;;;;;;;31.20;41.10;;;30.61;41.03;101747.50;12164465;19;20171;-84
2023/08/21 17:16:09;;;;;;;;;;;31.20;41.10;;;30.64;40.83;101758.75;12168186;19;19918;-84
2023/08/21 17:20:11;;;;;;;;;;;31.00;41.10;;;30.62;41.06;101754.56;12156232;19;20353;-83
2023/08/21 17:24:26;;;;;;;;;;;;;;;;;;;;;
2023/08/21 17:28:44;;;;;;;;;;;30.90;41.20;;;30.55;40.96;101748.28;12170810;19;19923;-84
2023/08/21 17:32:47;;;;;;;;;;;31.00;41.30;;;30.40;40.71;101724.91;12157778;19;20269;-84
2023/08/21 17:36:52;;;;;;;;;;;31.00;41.20;;;30.46;40.67;101735.94;12134730;19;21013;-83
2023/08/21 17:40:53;;;;;;;;;;;30.90;41.40;;;30.38;41.02;101731.50;12135060;19;20987;-83
2023/08/21 17:44:55;;;;;;;;;;;30.80;41.30;;;30.27;40.70;101730.16;12134068;19;19937;-84
2023/08/21 17:48:57;;;;;;;;;;;30.80;41.50;;;30.24;40.44;101735.91;12142749;19;20033;-84
2023/08/21 17:53:02;;;;;;;;;;;30.60;41.40;;;30.08;40.71;101719.94;12153656;19;19930;-85
2023/08/21 17:57:04;;;;;;;;;;;30.60;41.50;;;29.99;40.93;101732.69;12150526;19;19919;-85
2023/08/21 18:01:24;;;;;;;;;;;30.40;41.50;;;29.89;40.51;101732.97;12167344;19;19930;-85
2023/08/21 18:05:36;;;;;;;;;;;30.40;41.60;;;29.83;41.00;101744.50;12187005;19;19940;-85
2023/08/21 18:10:08;;;;;;;;;;;30.20;41.60;;;29.71;40.98;101751.41;12173701;19;19966;-85
2023/08/21 18:15:31;;;;;;;;;;;30.00;41.50;;;29.31;40.65;101700.47;12188899;19;20303;-86